createdAt,value
2022-08-26T00:00:18.759Z,70.32
2022-08-26T00:01:18.729Z,70.42
2022-08-26T00:02:20.699Z,70.32
2022-08-26T00:03:18.690Z,70.23
2022-08-26T00:04:18.758Z,70.03
2022-08-26T00:05:18.701Z,69.43
2022-08-26T00:06:20.797Z,68.82
2022-08-26T00:07:18.643Z,69.32
2022-08-26T00:08:18.652Z,69.13
2022-08-26T00:09:18.637Z,68.82
2022-08-26T00:10:18.637Z,68.52
2022-08-26T00:11:26.802Z,68.43
2022-08-26T00:12:20.545Z,68.33
2022-08-26T00:13:19.722Z,68.43
2022-08-26T00:14:18.573Z,67.90
2022-08-26T00:15:18.560Z,67.99
2022-08-26T00:16:18.587Z,67.69
2022-08-26T00:17:18.571Z,67.90
2022-08-26T00:18:22.168Z,67.69
2022-08-26T00:19:18.518Z,67.90
2022-08-26T00:20:18.506Z,67.69
2022-08-26T00:21:18.510Z,67.80
2022-08-26T00:22:20.227Z,67.80
2022-08-26T00:23:18.487Z,68.19
2022-08-26T00:24:18.464Z,68.40
2022-08-26T00:25:18.459Z,68.29
2022-08-26T00:26:18.428Z,68.40
2022-08-26T00:27:18.453Z,68.70
2022-08-26T00:28:18.988Z,68.99
2022-08-26T00:29:18.401Z,68.99
2022-08-26T00:30:22.841Z,69.20
2022-08-26T00:31:19.461Z,69.20
2022-08-26T00:32:18.399Z,69.49
2022-08-26T00:33:18.389Z,69.69
2022-08-26T00:34:19.283Z,69.59
2022-08-26T00:35:18.336Z,69.99
2022-08-26T00:36:19.921Z,70.29
2022-08-26T00:37:18.324Z,70.09
2022-08-26T00:38:18.322Z,70.29
2022-08-26T00:39:18.322Z,70.59
2022-08-26T00:40:18.413Z,70.99
2022-08-26T00:41:18.275Z,71.39
2022-08-26T00:42:18.285Z,71.39
2022-08-26T00:43:18.253Z,71.79
2022-08-26T00:44:18.274Z,71.89
2022-08-26T00:45:18.255Z,72.19
2022-08-26T00:46:18.243Z,72.39
2022-08-26T00:47:18.235Z,72.59
2022-08-26T00:48:18.184Z,72.59
2022-08-26T00:49:18.199Z,72.89
2022-08-26T00:50:18.201Z,72.99
2022-08-26T00:51:18.172Z,73.19
2022-08-26T00:52:18.159Z,73.19
2022-08-26T00:53:18.139Z,73.49
2022-08-26T00:54:18.139Z,73.58
2022-08-26T00:55:20.385Z,73.79
2022-08-26T00:56:18.145Z,74.19
2022-08-26T00:57:18.103Z,74.68
2022-08-26T00:58:18.079Z,74.98
2022-08-26T00:59:18.093Z,74.98
2022-08-26T01:00:18.062Z,75.18
2022-08-26T01:01:18.074Z,75.18
2022-08-26T01:02:21.280Z,75.28
2022-08-26T01:03:18.030Z,75.68
2022-08-26T01:04:18.030Z,75.78
2022-08-26T01:05:18.037Z,75.98
2022-08-26T01:06:18.023Z,76.08
2022-08-26T01:07:18.026Z,76.38
2022-08-26T01:08:17.983Z,76.68
2022-08-26T01:09:17.984Z,76.82
2022-08-26T01:10:17.968Z,77.12
2022-08-26T01:11:17.963Z,77.32
2022-08-26T01:12:21.945Z,77.72
2022-08-26T01:13:17.944Z,77.92
2022-08-26T01:14:17.902Z,78.02
2022-08-26T01:15:17.938Z,78.22
2022-08-26T01:16:17.959Z,78.52
2022-08-26T01:17:17.876Z,78.31
2022-08-26T01:18:17.865Z,78.52
2022-08-26T01:19:17.977Z,78.61
2022-08-26T01:20:18.799Z,78.61
2022-08-26T01:21:17.827Z,78.72
2022-08-26T01:22:17.827Z,79.02
2022-08-26T01:23:17.813Z,79.11
2022-08-26T01:24:17.819Z,79.02
2022-08-26T01:25:17.782Z,79.22
2022-08-26T01:26:20.008Z,79.52
2022-08-26T01:27:17.774Z,79.52
2022-08-26T01:28:17.748Z,79.52
2022-08-26T01:29:17.790Z,79.52
2022-08-26T01:30:17.738Z,79.61
2022-08-26T01:31:17.757Z,79.72
2022-08-26T01:32:17.716Z,79.82
2022-08-26T01:33:17.754Z,80.05
2022-08-26T01:34:17.712Z,80.15
2022-08-26T01:35:17.681Z,80.35
2022-08-26T01:36:17.676Z,80.45
2022-08-26T01:37:17.682Z,80.55
2022-08-26T01:38:17.655Z,80.65
2022-08-26T01:39:17.624Z,80.65
2022-08-26T01:40:17.692Z,80.65
2022-08-26T01:41:19.935Z,80.76
2022-08-26T01:42:18.641Z,80.85
2022-08-26T01:43:17.604Z,80.95
2022-08-26T01:44:17.576Z,81.05
2022-08-26T01:45:17.568Z,81.25
2022-08-26T01:46:17.569Z,81.35
2022-08-26T01:47:17.545Z,81.56
2022-08-26T01:48:17.567Z,81.65
2022-08-26T01:49:17.507Z,81.65
2022-08-26T01:50:18.092Z,81.65
2022-08-26T01:51:18.504Z,81.75
2022-08-26T01:52:17.509Z,81.75
2022-08-26T01:53:17.488Z,82.05
2022-08-26T01:54:17.464Z,82.35
2022-08-26T01:55:32.248Z,82.35
2022-08-26T01:56:18.450Z,82.25
2022-08-26T01:57:17.420Z,82.25
2022-08-26T01:58:17.412Z,82.25
2022-08-26T01:59:17.410Z,82.59
2022-08-26T02:00:17.414Z,82.79
2022-08-26T02:01:17.480Z,82.99
2022-08-26T02:02:17.403Z,83.09
2022-08-26T02:03:17.460Z,83.29
2022-08-26T02:04:17.414Z,83.39
2022-08-26T02:05:17.341Z,83.49
2022-08-26T02:06:17.323Z,83.69
2022-08-26T02:07:17.353Z,83.59
2022-08-26T02:08:17.309Z,83.69
2022-08-26T02:09:18.294Z,83.99
2022-08-26T02:10:17.279Z,84.19
2022-08-26T02:11:18.313Z,84.19
2022-08-26T02:12:17.260Z,84.29
2022-08-26T02:13:17.280Z,84.33
2022-08-26T02:14:17.246Z,84.33
2022-08-26T02:15:17.319Z,84.43
2022-08-26T02:16:17.296Z,84.53
2022-08-26T02:17:17.215Z,84.63
2022-08-26T02:18:17.209Z,84.73
2022-08-26T02:19:17.461Z,84.93
2022-08-26T02:20:17.191Z,85.13
2022-08-26T02:21:17.167Z,85.23
2022-08-26T02:22:17.169Z,85.23
2022-08-26T02:23:17.140Z,85.33
2022-08-26T02:24:17.133Z,85.53
2022-08-26T02:25:17.152Z,85.53
2022-08-26T02:26:17.922Z,85.63
2022-08-26T02:27:17.101Z,85.93
2022-08-26T02:28:17.089Z,86.63
2022-08-26T02:29:17.095Z,86.83
2022-08-26T02:30:17.349Z,86.93
2022-08-26T02:31:17.124Z,87.23
2022-08-26T02:32:18.550Z,87.23
2022-08-26T02:33:17.067Z,87.34
2022-08-26T02:34:17.049Z,87.43
2022-08-26T02:35:18.304Z,87.57
2022-08-26T02:36:17.029Z,87.63
2022-08-26T02:37:17.669Z,87.68
2022-08-26T02:38:16.975Z,87.73
2022-08-26T02:39:22.023Z,87.87
2022-08-26T02:40:18.037Z,87.93
2022-08-26T02:41:16.948Z,88.03
2022-08-26T02:42:16.961Z,88.28
2022-08-26T02:43:16.976Z,88.28
2022-08-26T02:44:16.934Z,88.37
2022-08-26T02:45:16.923Z,88.37
2022-08-26T02:46:21.486Z,88.43
2022-08-26T02:47:17.943Z,88.53
2022-08-26T02:48:16.889Z,88.53
2022-08-26T02:49:16.981Z,88.53
2022-08-26T02:50:16.844Z,88.64
2022-08-26T02:51:16.844Z,88.73
2022-08-26T02:52:16.827Z,88.73
2022-08-26T02:53:17.030Z,88.78
2022-08-26T02:54:17.809Z,88.87
2022-08-26T02:55:16.790Z,88.98
2022-08-26T02:56:16.786Z,88.98
2022-08-26T02:57:16.774Z,89.07
2022-08-26T02:58:16.780Z,89.18
2022-08-26T02:59:16.796Z,89.18
2022-08-26T03:00:16.738Z,89.28
2022-08-26T03:01:16.790Z,89.18
2022-08-26T03:02:16.808Z,89.28
2022-08-26T03:03:16.726Z,89.28
2022-08-26T03:04:16.690Z,89.28
2022-08-26T03:05:16.708Z,89.18
2022-08-26T03:06:16.687Z,89.18
2022-08-26T03:07:16.686Z,89.18
2022-08-26T03:08:16.655Z,89.14
2022-08-26T03:09:18.837Z,89.14
2022-08-26T03:10:16.673Z,89.23
2022-08-26T03:11:16.619Z,89.23
2022-08-26T03:12:16.646Z,89.03
2022-08-26T03:13:16.596Z,88.93
2022-08-26T03:14:16.586Z,88.83
2022-08-26T03:15:17.956Z,88.83
2022-08-26T03:16:16.628Z,88.73
2022-08-26T03:17:16.561Z,88.83
2022-08-26T03:18:16.578Z,88.93
2022-08-26T03:19:17.711Z,88.83
2022-08-26T03:20:17.294Z,88.83
2022-08-26T03:21:16.530Z,88.87
2022-08-26T03:22:16.512Z,88.87
2022-08-26T03:23:16.490Z,88.87
2022-08-26T03:24:16.500Z,88.87
2022-08-26T03:25:16.471Z,88.98
2022-08-26T03:26:16.450Z,88.98
2022-08-26T03:27:16.546Z,88.98
2022-08-26T03:28:16.439Z,88.98
2022-08-26T03:29:16.653Z,88.98
2022-08-26T03:30:16.439Z,88.87
2022-08-26T03:31:16.470Z,88.98
2022-08-26T03:32:16.395Z,88.98
2022-08-26T03:33:16.384Z,88.98
2022-08-26T03:34:16.365Z,88.98
2022-08-26T03:35:16.390Z,88.98
2022-08-26T03:36:16.385Z,88.87
2022-08-26T03:37:16.335Z,88.87
2022-08-26T03:38:16.346Z,88.98
2022-08-26T03:39:16.325Z,88.98
2022-08-26T03:40:16.421Z,88.98
2022-08-26T03:41:16.296Z,88.98
2022-08-26T03:42:16.281Z,88.98
2022-08-26T03:43:16.329Z,88.87
2022-08-26T03:44:16.264Z,88.87
2022-08-26T03:45:16.256Z,88.87
2022-08-26T03:46:16.298Z,88.82
2022-08-26T03:47:16.246Z,88.92
2022-08-26T03:48:16.229Z,88.82
2022-08-26T03:49:16.241Z,88.92
2022-08-26T03:50:16.198Z,88.92
2022-08-26T03:51:18.007Z,88.92
2022-08-26T03:52:16.161Z,88.92
2022-08-26T03:53:16.204Z,88.92
2022-08-26T03:54:16.179Z,88.92
2022-08-26T03:55:16.163Z,88.82
2022-08-26T03:56:16.143Z,88.92
2022-08-26T03:57:16.765Z,88.92
2022-08-26T03:58:16.112Z,88.92
2022-08-26T03:59:16.104Z,88.82
2022-08-26T04:00:18.371Z,88.82
2022-08-26T04:01:16.340Z,88.82
2022-08-26T04:02:16.073Z,88.92
2022-08-26T04:03:18.907Z,88.92
2022-08-26T04:04:16.033Z,88.82
2022-08-26T04:05:16.029Z,88.71
2022-08-26T04:06:16.016Z,88.62
2022-08-26T04:07:16.025Z,88.32
2022-08-26T04:08:15.996Z,88.42
2022-08-26T04:09:16.000Z,88.42
2022-08-26T04:10:15.965Z,88.42
2022-08-26T04:11:15.962Z,88.32
2022-08-26T04:12:16.008Z,88.32
2022-08-26T04:13:15.939Z,88.21
2022-08-26T04:14:17.630Z,88.12
2022-08-26T04:15:15.928Z,88.21
2022-08-26T04:16:15.959Z,88.12
2022-08-26T04:17:15.909Z,88.02
2022-08-26T04:18:15.931Z,88.02
2022-08-26T04:19:15.877Z,88.02
2022-08-26T04:20:16.263Z,88.21
2022-08-26T04:21:15.877Z,88.21
2022-08-26T04:22:15.840Z,88.42
2022-08-26T04:23:16.831Z,88.42
2022-08-26T04:24:15.854Z,88.62
2022-08-26T04:25:15.812Z,88.42
2022-08-26T04:26:15.795Z,88.42
2022-08-26T04:27:15.995Z,88.42
2022-08-26T04:28:15.774Z,88.32
2022-08-26T04:29:15.794Z,88.32
2022-08-26T04:30:15.787Z,88.21
2022-08-26T04:31:15.819Z,88.02
2022-08-26T04:32:15.754Z,88.02
2022-08-26T04:33:15.754Z,88.12
2022-08-26T04:34:15.711Z,88.02
2022-08-26T04:35:15.715Z,87.92
2022-08-26T04:36:15.690Z,87.82
2022-08-26T04:37:15.716Z,87.92
2022-08-26T04:38:15.672Z,88.02
2022-08-26T04:39:15.659Z,87.92
2022-08-26T04:40:15.734Z,87.87
2022-08-26T04:41:17.100Z,87.92
2022-08-26T04:42:18.862Z,87.92
2022-08-26T04:43:16.623Z,87.68
2022-08-26T04:44:15.601Z,87.82
2022-08-26T04:45:15.610Z,87.68
2022-08-26T04:46:15.663Z,87.77
2022-08-26T04:47:15.579Z,87.57
2022-08-26T04:48:16.933Z,87.62
2022-08-26T04:49:15.553Z,87.52
2022-08-26T04:50:15.586Z,87.41
2022-08-26T04:51:15.555Z,87.41
2022-08-26T04:52:15.544Z,87.41
2022-08-26T04:53:15.519Z,87.41
2022-08-26T04:54:16.398Z,87.32
2022-08-26T04:55:15.539Z,87.21
2022-08-26T04:56:15.508Z,87.21
2022-08-26T04:57:15.518Z,87.32
2022-08-26T04:58:15.527Z,87.18
2022-08-26T04:59:17.116Z,87.07
2022-08-26T05:00:15.477Z,86.98
2022-08-26T05:01:15.486Z,86.98
2022-08-26T05:02:15.414Z,86.87
2022-08-26T05:03:15.395Z,86.77
2022-08-26T05:04:16.290Z,86.68
2022-08-26T05:05:15.415Z,86.47
2022-08-26T05:06:15.395Z,86.47
2022-08-26T05:07:15.363Z,86.47
2022-08-26T05:08:15.361Z,86.47
2022-08-26T05:09:15.506Z,86.61
2022-08-26T05:10:15.339Z,86.68
2022-08-26T05:11:15.332Z,86.82
2022-08-26T05:12:15.331Z,86.82
2022-08-26T05:13:15.824Z,86.82
2022-08-26T05:14:15.293Z,86.68
2022-08-26T05:15:15.264Z,86.71
2022-08-26T05:16:15.280Z,86.68
2022-08-26T05:17:15.305Z,86.77
2022-08-26T05:18:15.242Z,86.68
2022-08-26T05:19:15.265Z,86.68
2022-08-26T05:20:15.243Z,86.57
2022-08-26T05:21:15.266Z,86.71
2022-08-26T05:22:15.186Z,86.71
2022-08-26T05:23:15.245Z,86.71
2022-08-26T05:24:15.190Z,86.82
2022-08-26T05:25:36.157Z,86.82
2022-08-26T05:26:15.205Z,86.82
2022-08-26T05:27:15.175Z,86.82
2022-08-26T05:28:15.163Z,86.82
2022-08-26T05:29:15.166Z,86.71
2022-08-26T05:30:15.107Z,86.82
2022-08-26T05:31:15.214Z,86.91
2022-08-26T05:32:15.097Z,86.82
2022-08-26T05:33:15.139Z,86.91
2022-08-26T05:34:15.099Z,86.91
2022-08-26T05:35:15.072Z,86.91
2022-08-26T05:36:15.044Z,86.91
2022-08-26T05:37:15.081Z,86.87
2022-08-26T05:38:15.060Z,86.87
2022-08-26T05:39:15.021Z,86.77
2022-08-26T05:40:15.096Z,86.68
2022-08-26T05:41:14.999Z,86.57
2022-08-26T05:42:14.990Z,86.47
2022-08-26T05:43:15.015Z,86.37
2022-08-26T05:44:14.960Z,86.27
2022-08-26T05:45:14.939Z,86.27
2022-08-26T05:46:14.972Z,86.37
2022-08-26T05:47:14.929Z,86.07
2022-08-26T05:48:14.930Z,85.93
2022-08-26T05:49:14.914Z,85.87
2022-08-26T05:50:14.911Z,85.97
2022-08-26T05:51:14.875Z,85.93
2022-08-26T05:52:14.882Z,85.97
2022-08-26T05:53:14.886Z,85.83
2022-08-26T05:54:14.906Z,85.87
2022-08-26T05:55:15.847Z,86.18
2022-08-26T05:56:14.833Z,86.18
2022-08-26T05:57:14.805Z,86.07
2022-08-26T05:58:14.825Z,85.97
2022-08-26T05:59:14.798Z,85.97
2022-08-26T06:00:14.810Z,85.97
2022-08-26T06:01:14.817Z,86.07
2022-08-26T06:02:14.797Z,85.97
2022-08-26T06:03:14.811Z,86.07
2022-08-26T06:04:14.747Z,86.27
2022-08-26T06:05:14.748Z,86.27
2022-08-26T06:06:14.707Z,86.47
2022-08-26T06:07:14.710Z,86.52
2022-08-26T06:08:14.692Z,86.52
2022-08-26T06:09:14.701Z,86.71
2022-08-26T06:10:31.575Z,86.61
2022-08-26T06:11:18.616Z,86.71
2022-08-26T06:12:14.648Z,86.61
2022-08-26T06:13:14.655Z,86.71
2022-08-26T06:14:14.639Z,86.71
2022-08-26T06:15:14.613Z,86.71
2022-08-26T06:16:14.812Z,86.77
2022-08-26T06:17:14.606Z,86.68
2022-08-26T06:18:14.590Z,86.47
2022-08-26T06:19:14.573Z,86.27
2022-08-26T06:20:14.564Z,86.07
2022-08-26T06:21:14.586Z,85.97
2022-08-26T06:22:14.545Z,85.77
2022-08-26T06:23:14.525Z,85.57
2022-08-26T06:24:14.542Z,85.47
2022-08-26T06:25:14.531Z,85.47
2022-08-26T06:26:14.507Z,85.57
2022-08-26T06:27:15.330Z,85.77
2022-08-26T06:28:14.483Z,85.57
2022-08-26T06:29:16.405Z,85.57
2022-08-26T06:30:15.455Z,85.57
2022-08-26T06:31:14.492Z,85.57
2022-08-26T06:32:14.444Z,85.47
2022-08-26T06:33:14.436Z,85.57
2022-08-26T06:34:14.413Z,85.68
2022-08-26T06:35:14.417Z,85.68
2022-08-26T06:36:14.388Z,85.77
2022-08-26T06:37:14.394Z,85.87
2022-08-26T06:38:14.378Z,85.87
2022-08-26T06:39:14.365Z,85.87
2022-08-26T06:40:14.414Z,86.11
2022-08-26T06:41:14.331Z,85.97
2022-08-26T06:42:14.370Z,85.87
2022-08-26T06:43:14.310Z,85.77
2022-08-26T06:44:14.299Z,85.77
2022-08-26T06:45:14.286Z,85.77
2022-08-26T06:46:14.318Z,85.77
2022-08-26T06:47:14.283Z,85.87
2022-08-26T06:48:14.250Z,85.77
2022-08-26T06:49:14.241Z,85.77
2022-08-26T06:50:14.246Z,85.77
2022-08-26T06:51:14.214Z,85.77
2022-08-26T06:52:14.240Z,85.77
2022-08-26T06:53:15.192Z,85.57
2022-08-26T06:54:14.182Z,85.27
2022-08-26T06:55:14.195Z,85.17
2022-08-26T06:56:14.192Z,85.17
2022-08-26T06:57:14.231Z,85.17
2022-08-26T06:58:14.149Z,85.27
2022-08-26T06:59:14.128Z,85.13
2022-08-26T07:00:14.150Z,84.93
2022-08-26T07:01:14.135Z,84.93
2022-08-26T07:02:14.144Z,84.83
2022-08-26T07:03:14.157Z,84.83
2022-08-26T07:04:14.101Z,84.73
2022-08-26T07:05:14.064Z,84.63
2022-08-26T07:06:14.076Z,84.43
2022-08-26T07:07:14.038Z,84.53
2022-08-26T07:08:14.036Z,84.43
2022-08-26T07:09:14.025Z,84.53
2022-08-26T07:10:14.043Z,84.13
2022-08-26T07:11:14.004Z,84.03
2022-08-26T07:12:14.003Z,84.13
2022-08-26T07:13:13.993Z,84.13
2022-08-26T07:14:13.980Z,84.23
2022-08-26T07:15:13.957Z,84.23
2022-08-26T07:16:13.990Z,84.23
2022-08-26T07:17:14.054Z,84.13
2022-08-26T07:18:13.947Z,84.03
2022-08-26T07:19:13.907Z,83.93
2022-08-26T07:20:13.936Z,84.03
2022-08-26T07:21:13.886Z,83.93
2022-08-26T07:22:13.908Z,83.73
2022-08-26T07:23:13.866Z,83.73
2022-08-26T07:24:13.857Z,83.93
2022-08-26T07:25:13.845Z,83.93
2022-08-26T07:26:13.834Z,83.93
2022-08-26T07:27:13.839Z,83.97
2022-08-26T07:28:13.805Z,84.07
2022-08-26T07:29:13.788Z,84.17
2022-08-26T07:30:14.802Z,84.17
2022-08-26T07:31:13.815Z,84.27
2022-08-26T07:32:13.799Z,84.23
2022-08-26T07:33:13.746Z,84.23
2022-08-26T07:34:13.755Z,84.33
2022-08-26T07:35:13.725Z,84.23
2022-08-26T07:36:13.728Z,84.47
2022-08-26T07:37:13.698Z,84.57
2022-08-26T07:38:13.753Z,84.67
2022-08-26T07:39:13.685Z,84.57
2022-08-26T07:40:13.724Z,84.67
2022-08-26T07:41:13.686Z,84.67
2022-08-26T07:42:13.690Z,84.67
2022-08-26T07:43:13.671Z,84.67
2022-08-26T07:44:13.650Z,84.67
2022-08-26T07:45:13.623Z,84.73
2022-08-26T07:46:16.470Z,84.63
2022-08-26T07:47:25.287Z,84.53
2022-08-26T07:48:14.597Z,84.33
2022-08-26T07:49:13.627Z,84.13
2022-08-26T07:50:13.584Z,84.13
2022-08-26T07:51:13.579Z,84.13
2022-08-26T07:52:13.561Z,84.13
2022-08-26T07:53:13.565Z,84.03
2022-08-26T07:54:13.535Z,83.93
2022-08-26T07:55:13.575Z,83.83
2022-08-26T07:56:13.514Z,83.73
2022-08-26T07:57:13.511Z,83.53
2022-08-26T07:58:13.483Z,83.53
2022-08-26T07:59:14.001Z,83.63
2022-08-26T08:00:13.458Z,83.63
2022-08-26T08:01:13.538Z,83.53
2022-08-26T08:02:13.473Z,83.63
2022-08-26T08:03:13.438Z,83.53
2022-08-26T08:04:13.419Z,83.53
2022-08-26T08:05:13.469Z,83.83
2022-08-26T08:06:13.391Z,84.03
2022-08-26T08:07:13.419Z,83.83
2022-08-26T08:08:26.222Z,83.43
2022-08-26T08:09:14.375Z,83.53
2022-08-26T08:10:13.351Z,83.53
2022-08-26T08:11:13.332Z,83.63
2022-08-26T08:12:13.979Z,83.63
2022-08-26T08:13:13.303Z,83.83
2022-08-26T08:14:13.337Z,83.93
2022-08-26T08:15:13.316Z,83.49
2022-08-26T08:16:13.288Z,83.09
2022-08-26T08:17:13.279Z,83.09
2022-08-26T08:18:15.386Z,82.99
2022-08-26T08:19:13.253Z,83.39
2022-08-26T08:20:13.257Z,83.19
2022-08-26T08:21:21.690Z,83.09
2022-08-26T08:22:17.546Z,82.99
2022-08-26T08:23:14.195Z,82.99
2022-08-26T08:24:13.236Z,82.59
2022-08-26T08:25:13.176Z,82.49
2022-08-26T08:26:13.168Z,82.49
2022-08-26T08:27:13.187Z,82.53
2022-08-26T08:28:13.173Z,82.83
2022-08-26T08:29:13.130Z,82.93
2022-08-26T08:30:13.651Z,82.93
2022-08-26T08:31:13.128Z,83.03
2022-08-26T08:32:13.107Z,82.79
2022-08-26T08:33:13.090Z,82.49
2022-08-26T08:34:13.096Z,82.29
2022-08-26T08:35:13.069Z,82.53
2022-08-26T08:36:13.079Z,82.53
2022-08-26T08:37:14.056Z,82.43
2022-08-26T08:38:13.044Z,82.53
2022-08-26T08:39:13.036Z,82.63
2022-08-26T08:40:13.085Z,82.69
2022-08-26T08:41:13.007Z,82.79
2022-08-26T08:42:13.036Z,82.89
2022-08-26T08:43:12.983Z,82.89
2022-08-26T08:44:13.025Z,82.49
2022-08-26T08:45:12.963Z,82.29
2022-08-26T08:46:13.031Z,81.99
2022-08-26T08:47:12.953Z,82.09
2022-08-26T08:48:12.944Z,82.09
2022-08-26T08:49:12.913Z,82.09
2022-08-26T08:50:12.904Z,81.99
2022-08-26T08:51:12.895Z,81.79
2022-08-26T08:52:12.917Z,82.05
2022-08-26T08:53:12.865Z,81.75
2022-08-26T08:54:12.887Z,81.09
2022-08-26T08:55:16.084Z,81.39
2022-08-26T08:56:13.835Z,81.29
2022-08-26T08:57:12.833Z,81.39
2022-08-26T08:58:12.840Z,81.39
2022-08-26T08:59:12.798Z,81.79
2022-08-26T09:00:12.805Z,81.69
2022-08-26T09:01:12.828Z,81.69
2022-08-26T09:02:12.837Z,81.89
2022-08-26T09:03:12.783Z,81.79
2022-08-26T09:04:12.759Z,81.89
2022-08-26T09:05:15.074Z,81.79
2022-08-26T09:06:12.740Z,81.79
2022-08-26T09:07:12.742Z,82.19
2022-08-26T09:08:12.795Z,81.99
2022-08-26T09:09:12.680Z,81.99
2022-08-26T09:10:12.673Z,81.69
2022-08-26T09:11:12.690Z,82.09
2022-08-26T09:12:12.660Z,81.69
2022-08-26T09:13:16.369Z,82.09
2022-08-26T09:14:12.641Z,81.69
2022-08-26T09:15:12.622Z,81.69
2022-08-26T09:16:12.634Z,81.89
2022-08-26T09:17:12.657Z,81.89
2022-08-26T09:18:12.626Z,81.69
2022-08-26T09:19:12.643Z,81.75
2022-08-26T09:20:12.567Z,81.35
2022-08-26T09:21:12.562Z,81.05
2022-08-26T09:22:12.554Z,80.82
2022-08-26T09:23:12.539Z,80.51
2022-08-26T09:24:13.975Z,80.32
2022-08-26T09:25:12.523Z,80.02
2022-08-26T09:26:12.502Z,80.02
2022-08-26T09:27:12.494Z,79.48
2022-08-26T09:28:12.484Z,79.38
2022-08-26T09:29:12.494Z,79.17
2022-08-26T09:30:12.486Z,79.28
2022-08-26T09:31:12.513Z,79.28
2022-08-26T09:32:12.432Z,79.48
2022-08-26T09:33:12.770Z,79.28
2022-08-26T09:34:12.430Z,79.17
2022-08-26T09:35:13.422Z,78.88
2022-08-26T09:36:12.419Z,78.68
2022-08-26T09:37:12.382Z,78.68
2022-08-26T09:38:12.381Z,78.88
2022-08-26T09:39:12.384Z,79.08
2022-08-26T09:40:12.484Z,79.28
2022-08-26T09:41:12.364Z,78.88
2022-08-26T09:42:12.344Z,78.78
2022-08-26T09:43:12.339Z,78.98
2022-08-26T09:44:14.750Z,78.98
2022-08-26T09:45:12.294Z,78.88
2022-08-26T09:46:12.322Z,79.17
2022-08-26T09:47:12.277Z,78.94
2022-08-26T09:48:12.282Z,78.94
2022-08-26T09:49:13.266Z,78.24
2022-08-26T09:50:12.502Z,78.34
2022-08-26T09:51:12.250Z,78.14
2022-08-26T09:52:12.226Z,77.94
2022-08-26T09:53:12.950Z,77.51
2022-08-26T09:54:12.193Z,77.70
2022-08-26T09:55:13.188Z,77.21
2022-08-26T09:56:12.197Z,77.51
2022-08-26T09:57:12.157Z,77.81
2022-08-26T09:58:12.293Z,77.91
2022-08-26T09:59:12.146Z,77.70
2022-08-26T10:00:12.124Z,77.40
2022-08-26T10:01:12.144Z,77.31
2022-08-26T10:02:12.327Z,77.64
2022-08-26T10:03:12.359Z,77.44
2022-08-26T10:04:13.106Z,77.55
2022-08-26T10:05:12.082Z,77.98
2022-08-26T10:06:12.091Z,78.18
2022-08-26T10:07:12.052Z,78.18
2022-08-26T10:08:12.038Z,78.38
2022-08-26T10:09:12.023Z,78.58
2022-08-26T10:10:12.017Z,78.72
2022-08-26T10:11:12.011Z,78.92
2022-08-26T10:12:12.034Z,79.02
2022-08-26T10:13:11.985Z,79.11
2022-08-26T10:14:11.964Z,79.11
2022-08-26T10:15:12.009Z,79.22
2022-08-26T10:16:11.991Z,78.92
2022-08-26T10:17:11.967Z,78.92
2022-08-26T10:18:12.015Z,79.22
2022-08-26T10:19:11.939Z,79.41
2022-08-26T10:20:24.952Z,79.41
2022-08-26T10:21:12.920Z,79.02
2022-08-26T10:22:11.890Z,78.72
2022-08-26T10:23:11.868Z,79.02
2022-08-26T10:24:11.898Z,78.72
2022-08-26T10:25:11.889Z,78.88
2022-08-26T10:26:11.884Z,78.88
2022-08-26T10:27:11.829Z,78.98
2022-08-26T10:28:11.818Z,78.68
2022-08-26T10:29:11.840Z,78.48
2022-08-26T10:30:11.803Z,77.78
2022-08-26T10:31:11.780Z,77.88
2022-08-26T10:32:13.908Z,77.98
2022-08-26T10:33:11.792Z,77.98
2022-08-26T10:34:12.541Z,78.31
2022-08-26T10:35:11.751Z,78.52
2022-08-26T10:36:12.326Z,78.81
2022-08-26T10:37:14.443Z,78.58
2022-08-26T10:38:11.723Z,78.48
2022-08-26T10:39:11.768Z,78.38
2022-08-26T10:40:11.776Z,78.08
2022-08-26T10:41:11.695Z,78.28
2022-08-26T10:42:11.687Z,78.08
2022-08-26T10:43:11.760Z,77.98
2022-08-26T10:44:11.640Z,77.98
2022-08-26T10:45:14.867Z,77.98
2022-08-26T10:46:11.682Z,77.84
2022-08-26T10:47:11.646Z,77.74
2022-08-26T10:48:11.599Z,77.34
2022-08-26T10:49:11.643Z,77.01
2022-08-26T10:50:11.582Z,76.31
2022-08-26T10:51:11.589Z,76.01
2022-08-26T10:52:12.256Z,76.21
2022-08-26T10:53:11.610Z,76.01
2022-08-26T10:54:11.786Z,75.91
2022-08-26T10:55:11.543Z,75.71
2022-08-26T10:56:18.581Z,76.21
2022-08-26T10:57:12.510Z,76.21
2022-08-26T10:58:11.638Z,76.31
2022-08-26T10:59:12.411Z,76.01
2022-08-26T11:00:11.488Z,75.67
2022-08-26T11:01:11.547Z,75.67
2022-08-26T11:02:11.479Z,75.48
2022-08-26T11:03:21.954Z,75.07
2022-08-26T11:04:12.485Z,74.94
2022-08-26T11:05:11.439Z,74.74
2022-08-26T11:06:11.424Z,74.44
2022-08-26T11:07:11.415Z,74.44
2022-08-26T11:08:11.391Z,74.15
2022-08-26T11:09:11.464Z,74.24
2022-08-26T11:10:11.396Z,74.04
2022-08-26T11:11:11.357Z,74.01
2022-08-26T11:12:11.387Z,73.81
2022-08-26T11:13:11.327Z,73.61
2022-08-26T11:14:11.316Z,73.21
2022-08-26T11:15:11.356Z,73.31
2022-08-26T11:16:11.352Z,73.01
2022-08-26T11:17:11.318Z,73.11
2022-08-26T11:18:11.480Z,73.41
2022-08-26T11:19:11.294Z,73.41
2022-08-26T11:20:13.634Z,73.38
2022-08-26T11:21:11.258Z,73.08
2022-08-26T11:22:11.225Z,72.68
2022-08-26T11:23:11.220Z,72.02
2022-08-26T11:24:11.215Z,72.41
2022-08-26T11:25:11.509Z,72.71
2022-08-26T11:26:11.209Z,73.11
2022-08-26T11:27:12.196Z,73.41
2022-08-26T11:28:11.318Z,73.41
2022-08-26T11:29:12.201Z,73.41
2022-08-26T11:30:11.159Z,73.51
2022-08-26T11:31:11.194Z,72.91
2022-08-26T11:32:11.160Z,72.91
2022-08-26T11:33:11.457Z,72.81
2022-08-26T11:34:11.101Z,72.91
2022-08-26T11:35:11.094Z,72.81
2022-08-26T11:36:12.178Z,72.71
2022-08-26T11:37:11.106Z,72.71
2022-08-26T11:38:11.085Z,72.91
2022-08-26T11:39:11.055Z,72.52
2022-08-26T11:40:11.075Z,72.81
2022-08-26T11:41:11.045Z,72.71
2022-08-26T11:42:11.007Z,72.68
2022-08-26T11:43:11.021Z,72.48
2022-08-26T11:44:11.027Z,72.28
2022-08-26T11:45:10.980Z,72.18
2022-08-26T11:46:11.073Z,71.84
2022-08-26T11:47:11.419Z,71.65
2022-08-26T11:48:10.955Z,71.15
2022-08-26T11:49:10.937Z,71.05
2022-08-26T11:50:10.930Z,70.36
2022-08-26T11:51:10.942Z,70.36
2022-08-26T11:52:10.908Z,70.85
2022-08-26T11:53:10.932Z,71.15
2022-08-26T11:54:10.921Z,71.25
2022-08-26T11:55:10.899Z,71.05
2022-08-26T11:56:10.921Z,70.72
2022-08-26T11:57:11.951Z,70.82
2022-08-26T11:58:10.915Z,70.62
2022-08-26T11:59:10.825Z,70.82
2022-08-26T12:00:13.544Z,70.32
2022-08-26T12:01:11.542Z,70.12
2022-08-26T12:02:10.835Z,70.32
2022-08-26T12:03:11.047Z,69.82
2022-08-26T12:04:10.937Z,69.59
2022-08-26T12:05:10.778Z,70.09
2022-08-26T12:06:10.764Z,69.99
2022-08-26T12:07:10.773Z,69.89
2022-08-26T12:08:11.038Z,69.09
2022-08-26T12:09:10.759Z,68.70
2022-08-26T12:10:10.774Z,69.09
2022-08-26T12:11:10.698Z,69.09
2022-08-26T12:12:10.685Z,69.43
2022-08-26T12:13:10.698Z,69.23
2022-08-26T12:14:10.688Z,69.32
2022-08-26T12:15:10.659Z,69.53
2022-08-26T12:16:10.657Z,69.53
2022-08-26T12:17:10.654Z,69.69
2022-08-26T12:18:10.636Z,69.39
2022-08-26T12:19:10.639Z,69.39
2022-08-26T12:20:10.745Z,69.29
2022-08-26T12:21:10.592Z,69.09
2022-08-26T12:22:10.577Z,68.99
2022-08-26T12:23:10.576Z,68.99
2022-08-26T12:24:10.600Z,68.80
2022-08-26T12:25:10.549Z,68.90
2022-08-26T12:26:10.566Z,68.86
2022-08-26T12:27:10.537Z,68.57
2022-08-26T12:28:10.546Z,68.66
2022-08-26T12:29:20.017Z,67.97
2022-08-26T12:30:12.435Z,67.77
2022-08-26T12:31:10.514Z,67.80
2022-08-26T12:32:10.485Z,67.80
2022-08-26T12:33:22.999Z,67.70
2022-08-26T12:34:17.433Z,68.13
2022-08-26T12:35:11.462Z,68.73
2022-08-26T12:36:10.468Z,68.83
2022-08-26T12:37:10.422Z,68.70
2022-08-26T12:38:10.580Z,68.60
2022-08-26T12:39:10.414Z,68.90
2022-08-26T12:40:10.527Z,69.20
2022-08-26T12:41:10.407Z,68.70
2022-08-26T12:42:10.422Z,68.37
2022-08-26T12:43:10.386Z,68.46
2022-08-26T12:44:10.395Z,68.27
2022-08-26T12:45:10.331Z,68.16
2022-08-26T12:46:10.332Z,67.87
2022-08-26T12:47:10.314Z,67.77
2022-08-26T12:48:10.439Z,67.97
2022-08-26T12:49:10.312Z,67.67
2022-08-26T12:50:10.335Z,67.18
2022-08-26T12:51:10.263Z,67.47
2022-08-26T12:52:10.247Z,67.60